LYNILYPG

Guest
Details From LYNI - NIS
To LYPG - Podgorica
Flight Number -
Tags generated
Created
Modified
Stats Distance 128 nm / 237 km
Max Altitude 10,400 ft / 3,170 m
Waypoints 3
Social Downloads 0
Likes 0
Share VATSIM

Download

Looking for another format? Having issues loading an existing format? Contact us
Advertisement - Login to hide

Notes

Basic altitude profile: - Ascent Rate: 2500ft/min - Ascent Speed: 250kts - Cruise Altitude: 35000ft - Cruise Speed: 420kts - Descent Rate: 1500ft/min - Descent Speed: 250kts Options: - Use NATs: yes - Use PACOTS: yes - Use low airways: yes - Use high airways: yes

Route

LYNI DOLEV LYPG

ID Type Via Altitude Latitude Longitude Leg Dist Tot Dist Heading (true) Name
O LYNI APT - 0 ft / 0 m 43.33675˚ 21.85542˚ - 0 nm - NIS
DOLEV FIX - 10,400 ft / 3,170 m 42.83389˚ 20.31139˚ 74 nm 74 nm 246° / 245° -
O LYPG APT - 0 ft / 0 m 42.36795˚ 19.27572˚ 53 nm 127 nm 239° / 238° Podgorica

Altitude Profile

Advertisement - Login to hide

LYNI

Details ICAO LYNI (INI)
Name NIS
Region Serbia and Montenegro
Timezone Europe/Belgrade (UTC+1.0)
Stats Elevation 648 ft / 198 m (AMSL)
Location 43.336748° 21.855417°
Runways 1
Magnetic Variation 4.765° E

METAR

LYNI 110600Z 20005KT 130V250 9999 FEW040 05/M03 Q1016 R11/////// NOSIG

Decode

TAF

TAF LYNI 110500Z 1106/1206 15010KT CAVOK TX11/1113Z TN06/1106Z

Decode

Departure Runways

ID Width Length Bearing (true) Bearing (mag) Surface Threshold Offset Overrun Length
11 148 ft / 45 m 8,187 ft / 2,495 m 113.61° 108.84° Asphalt 719 ft / 219 m 0 ft / 0 m
29 148 ft / 45 m 8,187 ft / 2,495 m 293.63° 288.86° Asphalt 985 ft / 300 m 0 ft / 0 m

LYPG

Details ICAO LYPG (TGD)
Name Podgorica
Region Serbia and Montenegro
Timezone Europe/Podgorica (UTC+1.0)
Stats Elevation 141 ft / 43 m (AMSL)
Location 42.367947° 19.275721°
Runways 2
Magnetic Variation 4.249° E

METAR

LYPG 110600Z 01004KT 350V070 9999 -RA FEW020 BKN033 OVC070 05/04 Q1019 NOSIG

Decode

TAF

TAF LYPG 110500Z 1106/1206 16005KT 6000 -RA FEW010 BKN030 OVC070 TX08/1114Z TN04/1106Z TEMPO 1106/1113 3000 BR TEMPO 1113/1206 16015KT 5000 RA

Decode

Destination Runways

ID Width Length Bearing (true) Bearing (mag) Surface Threshold Offset Overrun Length
08 50 ft / 15 m 7,130 ft / 2,173 m 85.78° 81.53° Asphalt 200 ft / 61 m 0 ft / 0 m
18 148 ft / 45 m 8,214 ft / 2,504 m 184.30° 180.05° Asphalt 250 ft / 76 m 0 ft / 0 m
26 50 ft / 15 m 7,130 ft / 2,173 m 265.79° 261.54° Asphalt 200 ft / 61 m 0 ft / 0 m
36 148 ft / 45 m 8,214 ft / 2,504 m 4.30° 0.05° Asphalt 250 ft / 76 m 0 ft / 0 m

Approach Navaids

Runway Type Ident Frequency Range Bearing (true) Bearing (mag) Slope Elevation
36 Localiser YUI 109.90 MHz 25 nm / 46 km 4.32° 0.07° - 115 ft / 35 m (AMSL)
36 Glidescope YUI 109.90 MHz 25 nm / 46 km 4.32° 0.07° 3.20° 85 ft / 26 m (AMSL)